sensor_id;sensor_type;location;lat;lon;timestamp;P1;durP1;ratioP1;P2;durP2;ratioP2
27225;SDS011;14732;51.074;3.788;2023-04-24T00:00:27;19.52;;;10.32;;
27225;SDS011;14732;51.074;3.788;2023-04-24T00:02:52;22.33;;;11.25;;
27225;SDS011;14732;51.074;3.788;2023-04-24T00:05:22;20.27;;;11.02;;
27225;SDS011;14732;51.074;3.788;2023-04-24T00:07:48;20.65;;;10.68;;
27225;SDS011;14732;51.074;3.788;2023-04-24T00:10:14;18.48;;;11.35;;
27225;SDS011;14732;51.074;3.788;2023-04-24T00:12:39;17.17;;;10.32;;
27225;SDS011;14732;51.074;3.788;2023-04-24T00:15:05;18.55;;;10.65;;
27225;SDS011;14732;51.074;3.788;2023-04-24T00:17:31;19.30;;;10.35;;
27225;SDS011;14732;51.074;3.788;2023-04-24T00:19:57;15.32;;;9.70;;
27225;SDS011;14732;51.074;3.788;2023-04-24T00:22:27;18.02;;;9.98;;
27225;SDS011;14732;51.074;3.788;2023-04-24T00:24:53;17.88;;;9.90;;
27225;SDS011;14732;51.074;3.788;2023-04-24T00:27:19;17.45;;;10.32;;
27225;SDS011;14732;51.074;3.788;2023-04-24T00:29:45;17.95;;;10.05;;
27225;SDS011;14732;51.074;3.788;2023-04-24T00:32:11;15.30;;;9.40;;
27225;SDS011;14732;51.074;3.788;2023-04-24T00:34:37;18.17;;;10.65;;
27225;SDS011;14732;51.074;3.788;2023-04-24T00:37:02;19.63;;;9.60;;
27225;SDS011;14732;51.074;3.788;2023-04-24T00:39:28;12.40;;;9.43;;
27225;SDS011;14732;51.074;3.788;2023-04-24T00:41:54;15.05;;;9.85;;
27225;SDS011;14732;51.074;3.788;2023-04-24T00:44:20;16.48;;;10.43;;
27225;SDS011;14732;51.074;3.788;2023-04-24T00:46:46;17.38;;;9.57;;
27225;SDS011;14732;51.074;3.788;2023-04-24T00:49:16;11.95;;;8.63;;
27225;SDS011;14732;51.074;3.788;2023-04-24T00:51:43;15.95;;;9.55;;
27225;SDS011;14732;51.074;3.788;2023-04-24T00:54:10;13.68;;;7.70;;
27225;SDS011;14732;51.074;3.788;2023-04-24T00:56:37;13.98;;;7.55;;
27225;SDS011;14732;51.074;3.788;2023-04-24T00:59:03;11.57;;;7.38;;
27225;SDS011;14732;51.074;3.788;2023-04-24T01:01:29;13.30;;;7.57;;
27225;SDS011;14732;51.074;3.788;2023-04-24T01:03:55;12.65;;;8.13;;
27225;SDS011;14732;51.074;3.788;2023-04-24T01:06:22;10.05;;;6.50;;
27225;SDS011;14732;51.074;3.788;2023-04-24T01:08:52;10.48;;;6.32;;
27225;SDS011;14732;51.074;3.788;2023-04-24T01:11:18;12.30;;;6.68;;
27225;SDS011;14732;51.074;3.788;2023-04-24T01:13:45;8.55;;;6.60;;
27225;SDS011;14732;51.074;3.788;2023-04-24T01:16:12;9.95;;;6.85;;
27225;SDS011;14732;51.074;3.788;2023-04-24T01:18:38;9.32;;;7.03;;
27225;SDS011;14732;51.074;3.788;2023-04-24T01:21:04;14.35;;;7.63;;
27225;SDS011;14732;51.074;3.788;2023-04-24T01:23:30;13.80;;;8.35;;
27225;SDS011;14732;51.074;3.788;2023-04-24T01:25:56;13.93;;;8.25;;
27225;SDS011;14732;51.074;3.788;2023-04-24T01:28:22;13.73;;;8.40;;
27225;SDS011;14732;51.074;3.788;2023-04-24T01:30:48;12.18;;;8.55;;
27225;SDS011;14732;51.074;3.788;2023-04-24T01:33:13;13.30;;;8.48;;
27225;SDS011;14732;51.074;3.788;2023-04-24T01:35:39;13.27;;;7.82;;
27225;SDS011;14732;51.074;3.788;2023-04-24T01:38:05;12.85;;;8.48;;
27225;SDS011;14732;51.074;3.788;2023-04-24T01:40:31;11.40;;;7.80;;
27225;SDS011;14732;51.074;3.788;2023-04-24T01:42:58;13.88;;;8.88;;
27225;SDS011;14732;51.074;3.788;2023-04-24T01:45:24;13.13;;;8.27;;
27225;SDS011;14732;51.074;3.788;2023-04-24T01:47:50;13.55;;;8.73;;
27225;SDS011;14732;51.074;3.788;2023-04-24T01:50:15;14.30;;;8.95;;
27225;SDS011;14732;51.074;3.788;2023-04-24T01:52:42;14.98;;;9.45;;
27225;SDS011;14732;51.074;3.788;2023-04-24T01:55:07;14.88;;;9.93;;
27225;SDS011;14732;51.074;3.788;2023-04-24T01:57:34;16.10;;;9.65;;
27225;SDS011;14732;51.074;3.788;2023-04-24T02:00:01;13.23;;;8.75;;
27225;SDS011;14732;51.074;3.788;2023-04-24T02:02:29;14.23;;;10.18;;
27225;SDS011;14732;51.074;3.788;2023-04-24T02:04:55;14.63;;;10.32;;
27225;SDS011;14732;51.074;3.788;2023-04-24T02:07:21;15.27;;;10.10;;
27225;SDS011;14732;51.074;3.788;2023-04-24T02:09:47;17.70;;;11.23;;
27225;SDS011;14732;51.074;3.788;2023-04-24T02:12:13;14.88;;;10.57;;
27225;SDS011;14732;51.074;3.788;2023-04-24T02:14:39;16.60;;;11.00;;
27225;SDS011;14732;51.074;3.788;2023-04-24T02:17:05;12.95;;;9.57;;
27225;SDS011;14732;51.074;3.788;2023-04-24T02:19:31;13.70;;;10.50;;
27225;SDS011;14732;51.074;3.788;2023-04-24T02:21:57;13.73;;;9.55;;
27225;SDS011;14732;51.074;3.788;2023-04-24T02:24:22;12.20;;;9.02;;
27225;SDS011;14732;51.074;3.788;2023-04-24T02:26:48;14.43;;;9.85;;
27225;SDS011;14732;51.074;3.788;2023-04-24T02:29:14;13.40;;;10.10;;
27225;SDS011;14732;51.074;3.788;2023-04-24T02:31:40;13.18;;;9.82;;
27225;SDS011;14732;51.074;3.788;2023-04-24T02:34:05;12.30;;;9.55;;
27225;SDS011;14732;51.074;3.788;2023-04-24T02:36:31;13.68;;;9.73;;
27225;SDS011;14732;51.074;3.788;2023-04-24T02:38:57;13.68;;;9.43;;
27225;SDS011;14732;51.074;3.788;2023-04-24T02:41:22;16.02;;;9.90;;
27225;SDS011;14732;51.074;3.788;2023-04-24T02:43:48;12.95;;;9.60;;
27225;SDS011;14732;51.074;3.788;2023-04-24T02:46:14;11.88;;;8.35;;
27225;SDS011;14732;51.074;3.788;2023-04-24T02:48:40;14.82;;;8.98;;
27225;SDS011;14732;51.074;3.788;2023-04-24T02:51:05;11.70;;;7.97;;
27225;SDS011;14732;51.074;3.788;2023-04-24T02:53:31;9.15;;;6.97;;
27225;SDS011;14732;51.074;3.788;2023-04-24T02:55:57;11.40;;;6.60;;
27225;SDS011;14732;51.074;3.788;2023-04-24T02:58:23;8.35;;;5.78;;
27225;SDS011;14732;51.074;3.788;2023-04-24T03:00:52;7.00;;;4.65;;
27225;SDS011;14732;51.074;3.788;2023-04-24T03:03:19;10.68;;;4.90;;
27225;SDS011;14732;51.074;3.788;2023-04-24T03:05:45;8.27;;;4.20;;
27225;SDS011;14732;51.074;3.788;2023-04-24T03:08:11;7.00;;;3.50;;
27225;SDS011;14732;51.074;3.788;2023-04-24T03:10:36;7.47;;;3.38;;
27225;SDS011;14732;51.074;3.788;2023-04-24T03:13:02;11.45;;;3.00;;
27225;SDS011;14732;51.074;3.788;2023-04-24T03:15:28;7.28;;;3.30;;
27225;SDS011;14732;51.074;3.788;2023-04-24T03:17:54;9.07;;;3.13;;
27225;SDS011;14732;51.074;3.788;2023-04-24T03:20:20;4.65;;;2.65;;
27225;SDS011;14732;51.074;3.788;2023-04-24T03:22:46;6.38;;;3.00;;
27225;SDS011;14732;51.074;3.788;2023-04-24T03:25:12;6.05;;;3.03;;
27225;SDS011;14732;51.074;3.788;2023-04-24T03:27:37;10.00;;;4.10;;
27225;SDS011;14732;51.074;3.788;2023-04-24T03:30:04;9.18;;;4.18;;
27225;SDS011;14732;51.074;3.788;2023-04-24T03:32:31;11.15;;;3.85;;
27225;SDS011;14732;51.074;3.788;2023-04-24T03:34:57;8.50;;;4.35;;
27225;SDS011;14732;51.074;3.788;2023-04-24T03:37:23;9.38;;;5.03;;
27225;SDS011;14732;51.074;3.788;2023-04-24T03:39:48;11.95;;;5.68;;
27225;SDS011;14732;51.074;3.788;2023-04-24T03:42:14;9.55;;;5.20;;
27225;SDS011;14732;51.074;3.788;2023-04-24T03:44:40;11.48;;;5.97;;
27225;SDS011;14732;51.074;3.788;2023-04-24T03:47:05;9.93;;;6.07;;
27225;SDS011;14732;51.074;3.788;2023-04-24T03:49:31;12.35;;;6.25;;
27225;SDS011;14732;51.074;3.788;2023-04-24T03:51:57;13.50;;;6.72;;
27225;SDS011;14732;51.074;3.788;2023-04-24T03:54:22;13.13;;;7.10;;
27225;SDS011;14732;51.074;3.788;2023-04-24T03:56:48;14.02;;;7.50;;
27225;SDS011;14732;51.074;3.788;2023-04-24T03:59:14;12.80;;;7.40;;
27225;SDS011;14732;51.074;3.788;2023-04-24T04:01:39;11.52;;;7.50;;
27225;SDS011;14732;51.074;3.788;2023-04-24T04:04:05;16.35;;;7.80;;
27225;SDS011;14732;51.074;3.788;2023-04-24T04:06:31;16.00;;;7.50;;
27225;SDS011;14732;51.074;3.788;2023-04-24T04:08:57;17.65;;;7.15;;
27225;SDS011;14732;51.074;3.788;2023-04-24T04:11:23;16.67;;;7.25;;
27225;SDS011;14732;51.074;3.788;2023-04-24T04:13:49;16.20;;;7.50;;
27225;SDS011;14732;51.074;3.788;2023-04-24T04:16:16;16.52;;;7.05;;
27225;SDS011;14732;51.074;3.788;2023-04-24T04:18:42;15.13;;;7.18;;
27225;SDS011;14732;51.074;3.788;2023-04-24T04:21:08;11.07;;;6.85;;
27225;SDS011;14732;51.074;3.788;2023-04-24T04:23:34;14.95;;;7.68;;
27225;SDS011;14732;51.074;3.788;2023-04-24T04:26:00;19.17;;;7.20;;
27225;SDS011;14732;51.074;3.788;2023-04-24T04:28:26;13.88;;;7.32;;
27225;SDS011;14732;51.074;3.788;2023-04-24T04:30:51;12.35;;;6.63;;
27225;SDS011;14732;51.074;3.788;2023-04-24T04:33:20;11.25;;;6.65;;
27225;SDS011;14732;51.074;3.788;2023-04-24T04:35:46;15.82;;;7.00;;
27225;SDS011;14732;51.074;3.788;2023-04-24T04:38:17;14.00;;;6.72;;
27225;SDS011;14732;51.074;3.788;2023-04-24T04:40:43;10.52;;;6.50;;
27225;SDS011;14732;51.074;3.788;2023-04-24T04:43:10;13.23;;;6.35;;
27225;SDS011;14732;51.074;3.788;2023-04-24T04:45:36;13.98;;;6.90;;
27225;SDS011;14732;51.074;3.788;2023-04-24T04:48:03;14.07;;;7.43;;
27225;SDS011;14732;51.074;3.788;2023-04-24T04:50:32;17.52;;;7.15;;
27225;SDS011;14732;51.074;3.788;2023-04-24T04:52:58;12.88;;;7.45;;
27225;SDS011;14732;51.074;3.788;2023-04-24T04:55:23;16.13;;;6.68;;
27225;SDS011;14732;51.074;3.788;2023-04-24T04:57:49;12.93;;;6.97;;
27225;SDS011;14732;51.074;3.788;2023-04-24T05:00:16;13.70;;;7.13;;
27225;SDS011;14732;51.074;3.788;2023-04-24T05:02:41;13.25;;;7.15;;
27225;SDS011;14732;51.074;3.788;2023-04-24T05:05:07;13.60;;;7.45;;
27225;SDS011;14732;51.074;3.788;2023-04-24T05:07:33;12.75;;;6.63;;
27225;SDS011;14732;51.074;3.788;2023-04-24T05:09:59;16.92;;;7.25;;
27225;SDS011;14732;51.074;3.788;2023-04-24T05:12:25;17.20;;;7.97;;
27225;SDS011;14732;51.074;3.788;2023-04-24T05:14:51;15.02;;;7.25;;
27225;SDS011;14732;51.074;3.788;2023-04-24T05:17:17;12.40;;;7.38;;
27225;SDS011;14732;51.074;3.788;2023-04-24T05:19:43;13.18;;;8.15;;
27225;SDS011;14732;51.074;3.788;2023-04-24T05:22:09;14.85;;;7.97;;
27225;SDS011;14732;51.074;3.788;2023-04-24T05:24:35;14.65;;;7.95;;
27225;SDS011;14732;51.074;3.788;2023-04-24T05:27:04;16.98;;;8.32;;
27225;SDS011;14732;51.074;3.788;2023-04-24T05:29:30;18.00;;;8.23;;
27225;SDS011;14732;51.074;3.788;2023-04-24T05:31:58;19.55;;;8.32;;
27225;SDS011;14732;51.074;3.788;2023-04-24T05:34:24;15.20;;;8.45;;
27225;SDS011;14732;51.074;3.788;2023-04-24T05:36:50;15.55;;;7.80;;
27225;SDS011;14732;51.074;3.788;2023-04-24T05:39:16;18.65;;;8.30;;
27225;SDS011;14732;51.074;3.788;2023-04-24T05:41:42;17.08;;;8.13;;
27225;SDS011;14732;51.074;3.788;2023-04-24T05:44:08;14.50;;;7.95;;
27225;SDS011;14732;51.074;3.788;2023-04-24T05:46:34;15.73;;;8.90;;
27225;SDS011;14732;51.074;3.788;2023-04-24T05:49:00;21.55;;;9.00;;
27225;SDS011;14732;51.074;3.788;2023-04-24T05:51:27;16.75;;;9.57;;
27225;SDS011;14732;51.074;3.788;2023-04-24T05:53:52;18.48;;;8.43;;
27225;SDS011;14732;51.074;3.788;2023-04-24T05:56:18;24.55;;;9.30;;
27225;SDS011;14732;51.074;3.788;2023-04-24T05:58:45;18.50;;;8.85;;
27225;SDS011;14732;51.074;3.788;2023-04-24T06:01:11;19.38;;;10.32;;
27225;SDS011;14732;51.074;3.788;2023-04-24T06:03:38;19.13;;;9.18;;
27225;SDS011;14732;51.074;3.788;2023-04-24T06:06:05;20.63;;;10.05;;
27225;SDS011;14732;51.074;3.788;2023-04-24T06:08:31;21.20;;;9.60;;
27225;SDS011;14732;51.074;3.788;2023-04-24T06:10:57;20.15;;;9.48;;
27225;SDS011;14732;51.074;3.788;2023-04-24T06:13:23;21.42;;;10.20;;
27225;SDS011;14732;51.074;3.788;2023-04-24T06:15:49;23.20;;;10.57;;
27225;SDS011;14732;51.074;3.788;2023-04-24T06:18:15;19.05;;;10.00;;
27225;SDS011;14732;51.074;3.788;2023-04-24T06:20:41;20.10;;;10.15;;
27225;SDS011;14732;51.074;3.788;2023-04-24T06:23:06;23.60;;;10.32;;
27225;SDS011;14732;51.074;3.788;2023-04-24T06:25:32;24.92;;;9.65;;
27225;SDS011;14732;51.074;3.788;2023-04-24T06:27:58;19.92;;;10.60;;
27225;SDS011;14732;51.074;3.788;2023-04-24T06:30:23;23.25;;;9.60;;
27225;SDS011;14732;51.074;3.788;2023-04-24T06:32:50;23.65;;;9.55;;
27225;SDS011;14732;51.074;3.788;2023-04-24T06:35:15;20.08;;;9.05;;
27225;SDS011;14732;51.074;3.788;2023-04-24T06:37:42;22.30;;;9.40;;
27225;SDS011;14732;51.074;3.788;2023-04-24T06:40:08;21.20;;;8.55;;
27225;SDS011;14732;51.074;3.788;2023-04-24T06:42:35;26.08;;;8.48;;
27225;SDS011;14732;51.074;3.788;2023-04-24T06:45:01;20.48;;;7.68;;
27225;SDS011;14732;51.074;3.788;2023-04-24T06:47:27;19.65;;;7.55;;
27225;SDS011;14732;51.074;3.788;2023-04-24T06:49:52;15.60;;;6.57;;
27225;SDS011;14732;51.074;3.788;2023-04-24T06:52:18;14.30;;;5.60;;
27225;SDS011;14732;51.074;3.788;2023-04-24T06:54:44;14.57;;;6.03;;
27225;SDS011;14732;51.074;3.788;2023-04-24T06:57:10;16.77;;;6.00;;
27225;SDS011;14732;51.074;3.788;2023-04-24T06:59:36;12.95;;;5.30;;
27225;SDS011;14732;51.074;3.788;2023-04-24T07:02:02;18.58;;;5.93;;
27225;SDS011;14732;51.074;3.788;2023-04-24T07:04:28;12.05;;;5.15;;
27225;SDS011;14732;51.074;3.788;2023-04-24T07:06:55;13.27;;;5.65;;
27225;SDS011;14732;51.074;3.788;2023-04-24T07:09:21;13.25;;;5.20;;
27225;SDS011;14732;51.074;3.788;2023-04-24T07:11:50;14.70;;;5.97;;
27225;SDS011;14732;51.074;3.788;2023-04-24T07:14:16;14.45;;;5.47;;
27225;SDS011;14732;51.074;3.788;2023-04-24T07:16:42;10.25;;;5.40;;
27225;SDS011;14732;51.074;3.788;2023-04-24T07:19:08;15.88;;;4.40;;
27225;SDS011;14732;51.074;3.788;2023-04-24T07:21:34;15.13;;;4.43;;
27225;SDS011;14732;51.074;3.788;2023-04-24T07:24:00;10.32;;;3.85;;
27225;SDS011;14732;51.074;3.788;2023-04-24T07:26:27;8.70;;;3.72;;
27225;SDS011;14732;51.074;3.788;2023-04-24T07:28:54;13.70;;;3.83;;
27225;SDS011;14732;51.074;3.788;2023-04-24T07:31:20;13.48;;;3.90;;
27225;SDS011;14732;51.074;3.788;2023-04-24T07:33:46;10.65;;;3.40;;
27225;SDS011;14732;51.074;3.788;2023-04-24T07:36:12;10.75;;;3.50;;
27225;SDS011;14732;51.074;3.788;2023-04-24T07:38:42;9.95;;;2.85;;
27225;SDS011;14732;51.074;3.788;2023-04-24T07:41:08;11.95;;;3.20;;
27225;SDS011;14732;51.074;3.788;2023-04-24T07:43:34;10.65;;;2.85;;
27225;SDS011;14732;51.074;3.788;2023-04-24T07:46:00;9.43;;;2.80;;
27225;SDS011;14732;51.074;3.788;2023-04-24T07:48:26;9.15;;;3.05;;
27225;SDS011;14732;51.074;3.788;2023-04-24T07:50:52;10.75;;;3.22;;
27225;SDS011;14732;51.074;3.788;2023-04-24T07:53:18;13.15;;;3.08;;
27225;SDS011;14732;51.074;3.788;2023-04-24T07:55:43;11.23;;;3.38;;
27225;SDS011;14732;51.074;3.788;2023-04-24T07:58:09;16.02;;;3.83;;
27225;SDS011;14732;51.074;3.788;2023-04-24T08:00:35;14.95;;;4.13;;
27225;SDS011;14732;51.074;3.788;2023-04-24T08:03:01;11.85;;;4.05;;
27225;SDS011;14732;51.074;3.788;2023-04-24T08:05:27;13.70;;;3.75;;
27225;SDS011;14732;51.074;3.788;2023-04-24T08:07:53;16.15;;;4.43;;
27225;SDS011;14732;51.074;3.788;2023-04-24T08:10:23;13.50;;;4.13;;
27225;SDS011;14732;51.074;3.788;2023-04-24T08:12:49;10.73;;;3.67;;
27225;SDS011;14732;51.074;3.788;2023-04-24T08:15:15;15.90;;;4.30;;
27225;SDS011;14732;51.074;3.788;2023-04-24T08:17:40;14.63;;;3.90;;
27225;SDS011;14732;51.074;3.788;2023-04-24T08:20:06;12.52;;;3.45;;
27225;SDS011;14732;51.074;3.788;2023-04-24T08:22:38;9.10;;;3.28;;
27225;SDS011;14732;51.074;3.788;2023-04-24T08:25:05;8.15;;;3.30;;
27225;SDS011;14732;51.074;3.788;2023-04-24T08:27:31;8.35;;;2.60;;
27225;SDS011;14732;51.074;3.788;2023-04-24T08:29:57;11.00;;;2.45;;
27225;SDS011;14732;51.074;3.788;2023-04-24T08:32:23;11.45;;;2.72;;
27225;SDS011;14732;51.074;3.788;2023-04-24T08:34:49;12.18;;;3.10;;
27225;SDS011;14732;51.074;3.788;2023-04-24T08:37:17;7.50;;;2.80;;
27225;SDS011;14732;51.074;3.788;2023-04-24T08:39:43;9.40;;;3.00;;
27225;SDS011;14732;51.074;3.788;2023-04-24T08:42:09;10.25;;;2.60;;
27225;SDS011;14732;51.074;3.788;2023-04-24T08:44:37;6.47;;;1.95;;
27225;SDS011;14732;51.074;3.788;2023-04-24T08:47:03;7.32;;;2.60;;
27225;SDS011;14732;51.074;3.788;2023-04-24T08:49:30;10.13;;;2.58;;
27225;SDS011;14732;51.074;3.788;2023-04-24T08:51:56;11.15;;;2.83;;
27225;SDS011;14732;51.074;3.788;2023-04-24T08:54:22;5.07;;;2.25;;
27225;SDS011;14732;51.074;3.788;2023-04-24T08:56:48;6.43;;;2.30;;
27225;SDS011;14732;51.074;3.788;2023-04-24T08:59:15;9.25;;;2.60;;
27225;SDS011;14732;51.074;3.788;2023-04-24T09:01:41;7.38;;;2.58;;
27225;SDS011;14732;51.074;3.788;2023-04-24T09:04:08;8.48;;;2.60;;
27225;SDS011;14732;51.074;3.788;2023-04-24T09:06:35;7.15;;;2.78;;
27225;SDS011;14732;51.074;3.788;2023-04-24T09:09:01;8.27;;;3.08;;
27225;SDS011;14732;51.074;3.788;2023-04-24T09:11:29;7.75;;;3.20;;
27225;SDS011;14732;51.074;3.788;2023-04-24T09:13:56;8.85;;;2.92;;
27225;SDS011;14732;51.074;3.788;2023-04-24T09:16:22;7.40;;;2.88;;
27225;SDS011;14732;51.074;3.788;2023-04-24T09:18:50;5.05;;;2.58;;
27225;SDS011;14732;51.074;3.788;2023-04-24T09:21:16;8.88;;;2.60;;
27225;SDS011;14732;51.074;3.788;2023-04-24T09:23:42;11.68;;;3.00;;
27225;SDS011;14732;51.074;3.788;2023-04-24T09:26:08;5.00;;;2.58;;
27225;SDS011;14732;51.074;3.788;2023-04-24T09:28:36;9.25;;;2.63;;
27225;SDS011;14732;51.074;3.788;2023-04-24T09:33:31;7.72;;;2.78;;
27225;SDS011;14732;51.074;3.788;2023-04-24T09:35:58;5.28;;;2.70;;
27225;SDS011;14732;51.074;3.788;2023-04-24T09:38:34;9.75;;;2.72;;
27225;SDS011;14732;51.074;3.788;2023-04-24T09:41:01;6.93;;;2.42;;
27225;SDS011;14732;51.074;3.788;2023-04-24T09:43:29;9.32;;;2.50;;
27225;SDS011;14732;51.074;3.788;2023-04-24T09:45:56;4.50;;;2.00;;
27225;SDS011;14732;51.074;3.788;2023-04-24T09:48:33;9.27;;;2.78;;
27225;SDS011;14732;51.074;3.788;2023-04-24T09:51:04;6.40;;;2.67;;
27225;SDS011;14732;51.074;3.788;2023-04-24T09:53:37;7.65;;;2.63;;
27225;SDS011;14732;51.074;3.788;2023-04-24T09:56:10;4.57;;;2.33;;
27225;SDS011;14732;51.074;3.788;2023-04-24T09:58:39;4.88;;;2.30;;
27225;SDS011;14732;51.074;3.788;2023-04-24T10:01:05;7.78;;;2.30;;
27225;SDS011;14732;51.074;3.788;2023-04-24T10:03:31;7.57;;;2.75;;
27225;SDS011;14732;51.074;3.788;2023-04-24T10:05:58;8.98;;;2.50;;
27225;SDS011;14732;51.074;3.788;2023-04-24T10:08:25;10.90;;;3.15;;
27225;SDS011;14732;51.074;3.788;2023-04-24T10:10:51;7.50;;;2.35;;
27225;SDS011;14732;51.074;3.788;2023-04-24T10:13:18;8.15;;;2.30;;
27225;SDS011;14732;51.074;3.788;2023-04-24T10:15:43;6.03;;;2.30;;
27225;SDS011;14732;51.074;3.788;2023-04-24T10:18:11;5.38;;;2.30;;
27225;SDS011;14732;51.074;3.788;2023-04-24T10:20:38;10.95;;;2.30;;
27225;SDS011;14732;51.074;3.788;2023-04-24T10:23:05;6.78;;;2.67;;
27225;SDS011;14732;51.074;3.788;2023-04-24T10:25:33;6.95;;;2.42;;
27225;SDS011;14732;51.074;3.788;2023-04-24T10:28:00;7.25;;;2.45;;
27225;SDS011;14732;51.074;3.788;2023-04-24T10:30:27;7.72;;;2.50;;
27225;SDS011;14732;51.074;3.788;2023-04-24T10:32:55;5.57;;;2.17;;
27225;SDS011;14732;51.074;3.788;2023-04-24T10:35:21;7.43;;;2.80;;
27225;SDS011;14732;51.074;3.788;2023-04-24T10:38:15;8.32;;;2.67;;
27225;SDS011;14732;51.074;3.788;2023-04-24T10:42:18;6.32;;;2.28;;
27225;SDS011;14732;51.074;3.788;2023-04-24T10:46:03;7.43;;;2.25;;
27225;SDS011;14732;51.074;3.788;2023-04-24T10:48:33;7.85;;;2.72;;
27225;SDS011;14732;51.074;3.788;2023-04-24T10:51:10;6.68;;;2.58;;
27225;SDS011;14732;51.074;3.788;2023-04-24T10:54:36;7.38;;;2.40;;
27225;SDS011;14732;51.074;3.788;2023-04-24T10:57:31;8.20;;;2.42;;
27225;SDS011;14732;51.074;3.788;2023-04-24T11:00:19;6.18;;;2.13;;
27225;SDS011;14732;51.074;3.788;2023-04-24T11:02:54;4.60;;;2.50;;
27225;SDS011;14732;51.074;3.788;2023-04-24T11:31:45;6.00;;;2.30;;
27225;SDS011;14732;51.074;3.788;2023-04-24T11:34:23;3.53;;;2.13;;
27225;SDS011;14732;51.074;3.788;2023-04-24T11:38:09;7.00;;;2.60;;
27225;SDS011;14732;51.074;3.788;2023-04-24T11:41:45;5.13;;;2.30;;
27225;SDS011;14732;51.074;3.788;2023-04-24T11:44:52;3.08;;;1.98;;
27225;SDS011;14732;51.074;3.788;2023-04-24T11:47:30;8.00;;;2.17;;
27225;SDS011;14732;51.074;3.788;2023-04-24T12:01:02;6.85;;;2.10;;
27225;SDS011;14732;51.074;3.788;2023-04-24T12:03:33;5.20;;;2.10;;
27225;SDS011;14732;51.074;3.788;2023-04-24T12:13:12;5.88;;;1.75;;
27225;SDS011;14732;51.074;3.788;2023-04-24T12:16:30;4.63;;;1.73;;
27225;SDS011;14732;51.074;3.788;2023-04-24T12:19:01;3.40;;;1.48;;
27225;SDS011;14732;51.074;3.788;2023-04-24T12:25:03;4.45;;;1.25;;
27225;SDS011;14732;51.074;3.788;2023-04-24T12:27:38;5.67;;;1.43;;
27225;SDS011;14732;51.074;3.788;2023-04-24T12:30:12;5.85;;;1.52;;
27225;SDS011;14732;51.074;3.788;2023-04-24T12:32:41;6.70;;;1.65;;
27225;SDS011;14732;51.074;3.788;2023-04-24T12:35:09;4.38;;;1.20;;
27225;SDS011;14732;51.074;3.788;2023-04-24T12:45:10;3.13;;;1.63;;
27225;SDS011;14732;51.074;3.788;2023-04-24T12:47:41;4.55;;;1.40;;
27225;SDS011;14732;51.074;3.788;2023-04-24T12:50:39;5.20;;;1.50;;
27225;SDS011;14732;51.074;3.788;2023-04-24T13:25:27;8.77;;;1.00;;
27225;SDS011;14732;51.074;3.788;2023-04-24T13:27:56;2.30;;;0.80;;
27225;SDS011;14732;51.074;3.788;2023-04-24T13:30:24;6.63;;;1.10;;
27225;SDS011;14732;51.074;3.788;2023-04-24T13:32:52;3.17;;;0.90;;
27225;SDS011;14732;51.074;3.788;2023-04-24T13:35:20;2.58;;;0.90;;
27225;SDS011;14732;51.074;3.788;2023-04-24T13:41:38;1.77;;;0.90;;
27225;SDS011;14732;51.074;3.788;2023-04-24T13:44:39;2.97;;;0.70;;
27225;SDS011;14732;51.074;3.788;2023-04-24T13:47:15;2.35;;;0.93;;
27225;SDS011;14732;51.074;3.788;2023-04-24T13:51:00;1.90;;;0.75;;
27225;SDS011;14732;51.074;3.788;2023-04-24T13:54:26;2.30;;;0.88;;
27225;SDS011;14732;51.074;3.788;2023-04-24T14:12:08;2.83;;;0.93;;
27225;SDS011;14732;51.074;3.788;2023-04-24T14:15:38;2.53;;;1.58;;
27225;SDS011;14732;51.074;3.788;2023-04-24T14:18:08;5.85;;;0.88;;
27225;SDS011;14732;51.074;3.788;2023-04-24T14:27:54;1.95;;;0.90;;
27225;SDS011;14732;51.074;3.788;2023-04-24T14:35:48;1.25;;;0.73;;
27225;SDS011;14732;51.074;3.788;2023-04-24T14:38:58;2.97;;;0.70;;
27225;SDS011;14732;51.074;3.788;2023-04-24T14:42:27;1.60;;;0.98;;
27225;SDS011;14732;51.074;3.788;2023-04-24T14:44:55;2.83;;;1.07;;
27225;SDS011;14732;51.074;3.788;2023-04-24T14:47:22;4.70;;;1.23;;
27225;SDS011;14732;51.074;3.788;2023-04-24T14:49:51;4.03;;;0.90;;
27225;SDS011;14732;51.074;3.788;2023-04-24T14:52:18;5.32;;;1.00;;
27225;SDS011;14732;51.074;3.788;2023-04-24T14:55:16;1.67;;;1.02;;
27225;SDS011;14732;51.074;3.788;2023-04-24T15:02:32;3.47;;;1.08;;
27225;SDS011;14732;51.074;3.788;2023-04-24T15:05:03;5.50;;;1.20;;
27225;SDS011;14732;51.074;3.788;2023-04-24T15:14:27;4.55;;;1.20;;
27225;SDS011;14732;51.074;3.788;2023-04-24T15:16:54;6.10;;;1.17;;
27225;SDS011;14732;51.074;3.788;2023-04-24T15:20:00;2.03;;;1.10;;
27225;SDS011;14732;51.074;3.788;2023-04-24T15:27:11;2.75;;;1.30;;
27225;SDS011;14732;51.074;3.788;2023-04-24T15:30:02;2.95;;;1.55;;
27225;SDS011;14732;51.074;3.788;2023-04-24T15:32:29;3.08;;;1.52;;
27225;SDS011;14732;51.074;3.788;2023-04-24T15:35:28;5.07;;;1.40;;
27225;SDS011;14732;51.074;3.788;2023-04-24T15:45:26;3.35;;;1.50;;
27225;SDS011;14732;51.074;3.788;2023-04-24T15:47:59;3.40;;;1.52;;
27225;SDS011;14732;51.074;3.788;2023-04-24T15:50:34;5.50;;;1.40;;
27225;SDS011;14732;51.074;3.788;2023-04-24T15:53:16;3.75;;;1.50;;
27225;SDS011;14732;51.074;3.788;2023-04-24T15:58:43;2.10;;;1.48;;
27225;SDS011;14732;51.074;3.788;2023-04-24T16:01:29;4.32;;;1.80;;
27225;SDS011;14732;51.074;3.788;2023-04-24T16:03:56;4.22;;;1.70;;
27225;SDS011;14732;51.074;3.788;2023-04-24T16:06:52;5.10;;;2.00;;
27225;SDS011;14732;51.074;3.788;2023-04-24T16:13:20;7.22;;;1.70;;
27225;SDS011;14732;51.074;3.788;2023-04-24T16:15:47;3.10;;;1.70;;
27225;SDS011;14732;51.074;3.788;2023-04-24T16:18:16;7.03;;;2.05;;
27225;SDS011;14732;51.074;3.788;2023-04-24T16:20:44;5.57;;;2.20;;
27225;SDS011;14732;51.074;3.788;2023-04-24T16:26:34;2.88;;;1.70;;
27225;SDS011;14732;51.074;3.788;2023-04-24T16:29:02;4.82;;;1.85;;
27225;SDS011;14732;51.074;3.788;2023-04-24T16:31:30;6.40;;;2.25;;
27225;SDS011;14732;51.074;3.788;2023-04-24T16:33:59;5.53;;;2.90;;
27225;SDS011;14732;51.074;3.788;2023-04-24T16:43:42;4.60;;;1.38;;
27225;SDS011;14732;51.074;3.788;2023-04-24T16:47:07;5.73;;;1.57;;
27225;SDS011;14732;51.074;3.788;2023-04-24T16:49:41;3.20;;;2.00;;
27225;SDS011;14732;51.074;3.788;2023-04-24T16:52:12;6.88;;;1.80;;
27225;SDS011;14732;51.074;3.788;2023-04-24T16:55:09;2.70;;;1.38;;
27225;SDS011;14732;51.074;3.788;2023-04-24T16:58:21;6.13;;;1.80;;
27225;SDS011;14732;51.074;3.788;2023-04-24T17:00:49;3.42;;;1.90;;
27225;SDS011;14732;51.074;3.788;2023-04-24T17:03:16;3.75;;;2.15;;
27225;SDS011;14732;51.074;3.788;2023-04-24T17:16:48;3.58;;;2.00;;
27225;SDS011;14732;51.074;3.788;2023-04-24T17:20:11;5.32;;;2.08;;
27225;SDS011;14732;51.074;3.788;2023-04-24T17:23:02;4.30;;;2.00;;
27225;SDS011;14732;51.074;3.788;2023-04-24T17:29:38;6.95;;;1.98;;
27225;SDS011;14732;51.074;3.788;2023-04-24T17:32:06;6.22;;;1.85;;
27225;SDS011;14732;51.074;3.788;2023-04-24T17:49:09;7.18;;;2.20;;
27225;SDS011;14732;51.074;3.788;2023-04-24T17:57:07;5.50;;;2.33;;
27225;SDS011;14732;51.074;3.788;2023-04-24T18:00:34;5.25;;;2.42;;
27225;SDS011;14732;51.074;3.788;2023-04-24T18:03:06;5.57;;;2.50;;
27225;SDS011;14732;51.074;3.788;2023-04-24T18:06:04;7.75;;;2.63;;
27225;SDS011;14732;51.074;3.788;2023-04-24T18:09:38;10.13;;;2.55;;
27225;SDS011;14732;51.074;3.788;2023-04-24T18:12:50;5.25;;;2.53;;
27225;SDS011;14732;51.074;3.788;2023-04-24T18:15:18;7.22;;;2.30;;
27225;SDS011;14732;51.074;3.788;2023-04-24T18:17:47;4.80;;;2.25;;
27225;SDS011;14732;51.074;3.788;2023-04-24T18:20:45;8.88;;;2.58;;
27225;SDS011;14732;51.074;3.788;2023-04-24T18:24:30;10.43;;;2.95;;